This is the latest recevied weather packets stored in our database for station/object N2XP-3. If no packets are shown the sender has not sent any weather packets the latest 10 day(s).
| Time | Temp. | Humidity | Pressure | Rain* | Wind** | Luminosity | Snow |
|---|---|---|---|---|---|---|---|
| 1777849858 | 13.33° C | 41% | 1008.2 hPa | 0 mm | 1.79 m/s, 153° | - | - |
| 1777849559 | 13.89° C | 40% | 1008.1 hPa | 0 mm | 0.45 m/s, 229° | - | - |
| 1777849260 | 13.89° C | 39% | 1008.1 hPa | 0 mm | 1.34 m/s, 330° | - | - |
| 1777849170 | 13.89° C | 39% | 1008.1 hPa | 0 mm | 0.89 m/s, 308° | - | - |
| 1777848955 | 13.89° C | 39% | 1008.1 hPa | 0 mm | 0.89 m/s, 308° | - | - |
| 1777848655 | 14.44° C | 39% | 1008.1 hPa | 0 mm | 2.24 m/s, 318° | - | - |
| 1777848049 | 14.44° C | 37% | 1008 hPa | 0 mm | 0 m/s | - | - |
| 1777847748 | 14.44° C | 37% | 1007.9 hPa | 0 mm | 2.24 m/s, 307° | - | - |
| 1777847449 | 14.44° C | 37% | 1008 hPa | 0 mm | 0 m/s | - | - |
| 1777847146 | 15° C | 37% | 1008 hPa | 0 mm | 0.45 m/s, 115° | - | - |
| 1777847027 | 15° C | 38% | 1008 hPa | 0 mm | 0.45 m/s, 318° | - | - |
| 1777846845 | 15° C | 38% | 1008 hPa | 0 mm | 0.45 m/s, 318° | - | - |
| 1777846546 | 15° C | 36% | 1008 hPa | 0 mm | 0.45 m/s, 193° | - | - |
| 1777846523 | 15° C | 35% | 1008 hPa | 0 mm | 0.45 m/s, 14° | - | - |
| 1777846240 | 15° C | 35% | 1008 hPa | 0 mm | 0.45 m/s, 14° | - | - |
| 1777846097 | 15.56° C | 35% | 1007.9 hPa | 0 mm | 0 m/s | - | - |
| 1777845930 | 15.56° C | 35% | 1007.9 hPa | 0 mm | 0 m/s | - | - |
| 1777845620 | 15.56° C | 34% | 1007.9 hPa | 0 mm | 2.68 m/s, 359° | - | - |
| 1777845327 | 15.56° C | 34% | 1007.9 hPa | 0 mm | 2.68 m/s, 359° | - | - |
| 1777845320 | 15.56° C | 34% | 1008 hPa | 0 mm | 2.24 m/s, 120° | - | - |
| 1777845026 | 15.56° C | 34% | 1008 hPa | 0 mm | 2.24 m/s, 120° | - | - |
| 1777845004 | 15.56° C | 34% | 1007.8 hPa | 0 mm | 1.79 m/s, 141° | - | - |
| 1777844726 | 15.56° C | 34% | 1007.8 hPa | 0 mm | 1.79 m/s, 141° | - | - |
| 1777844422 | 16.11° C | 34% | 1007.9 hPa | 0 mm | 0 m/s | - | - |
| 1777844419 | 16.11° C | 34% | 1007.8 hPa | 0 mm | 1.34 m/s, 23° | - | - |
* Rain latest hour (hover to see other rain measurements)
** Current wind speed in m/s (hover to see current wind gust speed)